sensor_id;sensor_type;location;lat;lon;timestamp;pressure;altitude;pressure_sealevel;temperature;humidity
79006;BME280;69202;45.498;-73.582;2023-04-30T00:01:09;100756.47;;;12.81;63.90
79006;BME280;69202;45.498;-73.582;2023-04-30T00:03:34;100799.25;;;12.92;63.48
79006;BME280;69202;45.498;-73.582;2023-04-30T00:06:00;100735.69;;;12.55;63.52
79006;BME280;69202;45.498;-73.582;2023-04-30T00:08:26;100721.50;;;12.47;63.46
79006;BME280;69202;45.498;-73.582;2023-04-30T00:10:53;100821.56;;;12.94;63.37
79006;BME280;69202;45.498;-73.582;2023-04-30T00:13:19;100818.25;;;12.92;64.29
79006;BME280;69202;45.498;-73.582;2023-04-30T00:15:44;100823.47;;;12.94;64.08
79006;BME280;69202;45.498;-73.582;2023-04-30T00:18:10;100793.22;;;12.70;64.32
79006;BME280;69202;45.498;-73.582;2023-04-30T00:20:36;100817.00;;;12.88;63.88
79006;BME280;69202;45.498;-73.582;2023-04-30T00:23:02;100825.78;;;12.84;63.95
79006;BME280;69202;45.498;-73.582;2023-04-30T00:25:28;100662.16;;;11.85;63.71
79006;BME280;69202;45.498;-73.582;2023-04-30T00:27:54;100755.94;;;12.33;64.13
79006;BME280;69202;45.498;-73.582;2023-04-30T00:30:20;100680.44;;;11.77;64.05
79006;BME280;69202;45.498;-73.582;2023-04-30T00:32:46;100805.38;;;12.61;64.33
79006;BME280;69202;45.498;-73.582;2023-04-30T00:35:12;100816.63;;;12.58;64.50
79006;BME280;69202;45.498;-73.582;2023-04-30T00:37:38;100778.66;;;12.52;64.20
79006;BME280;69202;45.498;-73.582;2023-04-30T00:40:05;100778.44;;;12.47;63.93
79006;BME280;69202;45.498;-73.582;2023-04-30T00:42:32;100758.44;;;12.41;63.77
79006;BME280;69202;45.498;-73.582;2023-04-30T00:44:58;100770.13;;;12.41;63.32
79006;BME280;69202;45.498;-73.582;2023-04-30T00:47:24;100807.44;;;12.59;63.55
79006;BME280;69202;45.498;-73.582;2023-04-30T00:49:50;100818.28;;;12.59;63.82
79006;BME280;69202;45.498;-73.582;2023-04-30T00:52:16;100755.97;;;12.20;63.75
79006;BME280;69202;45.498;-73.582;2023-04-30T00:54:42;100837.91;;;12.61;63.41
79006;BME280;69202;45.498;-73.582;2023-04-30T00:57:11;100754.72;;;12.09;63.69
79006;BME280;69202;45.498;-73.582;2023-04-30T00:59:38;100840.63;;;12.41;63.91
79006;BME280;69202;45.498;-73.582;2023-04-30T01:02:04;100812.22;;;12.57;64.39
79006;BME280;69202;45.498;-73.582;2023-04-30T01:04:30;100630.88;;;11.50;64.37
79006;BME280;69202;45.498;-73.582;2023-04-30T01:06:58;100800.34;;;12.45;64.05
79006;BME280;69202;45.498;-73.582;2023-04-30T01:09:27;100791.59;;;12.36;64.22
79006;BME280;69202;45.498;-73.582;2023-04-30T01:12:20;100744.25;;;12.06;63.91
79006;BME280;69202;45.498;-73.582;2023-04-30T01:14:59;100695.88;;;11.70;63.51
79006;BME280;69202;45.498;-73.582;2023-04-30T01:17:37;100661.28;;;11.39;64.72
79006;BME280;69202;45.498;-73.582;2023-04-30T01:20:07;100781.38;;;12.25;64.41
79006;BME280;69202;45.498;-73.582;2023-04-30T01:22:54;100807.03;;;12.36;64.74
79006;BME280;69202;45.498;-73.582;2023-04-30T01:25:43;100734.69;;;11.83;64.39
79006;BME280;69202;45.498;-73.582;2023-04-30T01:28:15;100824.75;;;12.38;64.44
79006;BME280;69202;45.498;-73.582;2023-04-30T01:30:44;100725.94;;;11.81;64.75
79006;BME280;69202;45.498;-73.582;2023-04-30T01:33:11;100677.31;;;11.53;64.72
79006;BME280;69202;45.498;-73.582;2023-04-30T01:46:29;100798.28;;;12.14;64.91
79006;BME280;69202;45.498;-73.582;2023-04-30T01:49:18;100770.31;;;11.94;65.96
79006;BME280;69202;45.498;-73.582;2023-04-30T01:51:45;100769.69;;;11.98;65.79
79006;BME280;69202;45.498;-73.582;2023-04-30T01:54:36;100799.31;;;12.26;65.28
79006;BME280;69202;45.498;-73.582;2023-04-30T01:57:06;100751.13;;;12.08;64.65
79006;BME280;69202;45.498;-73.582;2023-04-30T01:59:34;100747.41;;;12.03;64.85
79006;BME280;69202;45.498;-73.582;2023-04-30T02:02:03;100747.19;;;12.04;65.05
79006;BME280;69202;45.498;-73.582;2023-04-30T02:04:29;100712.53;;;11.73;64.92
79006;BME280;69202;45.498;-73.582;2023-04-30T02:06:55;100748.66;;;12.00;64.76
79006;BME280;69202;45.498;-73.582;2023-04-30T02:09:23;100788.91;;;12.23;65.35
79006;BME280;69202;45.498;-73.582;2023-04-30T02:11:49;100575.44;;;10.99;65.46
79006;BME280;69202;45.498;-73.582;2023-04-30T02:14:15;100763.66;;;12.29;65.50
79006;BME280;69202;45.498;-73.582;2023-04-30T02:16:41;100774.91;;;12.26;65.01
79006;BME280;69202;45.498;-73.582;2023-04-30T02:19:07;100744.06;;;12.21;64.74
79006;BME280;69202;45.498;-73.582;2023-04-30T02:21:33;100722.19;;;12.09;64.59
79006;BME280;69202;45.498;-73.582;2023-04-30T02:23:59;100746.97;;;12.19;64.51
79006;BME280;69202;45.498;-73.582;2023-04-30T02:26:25;100725.09;;;12.14;64.52
79006;BME280;69202;45.498;-73.582;2023-04-30T02:28:51;100604.19;;;11.34;63.77
79006;BME280;69202;45.498;-73.582;2023-04-30T02:31:18;100601.50;;;11.40;63.68
79006;BME280;69202;45.498;-73.582;2023-04-30T02:33:44;100749.47;;;12.34;64.03
79006;BME280;69202;45.498;-73.582;2023-04-30T02:36:10;100661.09;;;11.73;63.32
79006;BME280;69202;45.498;-73.582;2023-04-30T02:38:36;100657.13;;;11.69;63.24
79006;BME280;69202;45.498;-73.582;2023-04-30T02:41:01;100738.84;;;12.12;62.85
79006;BME280;69202;45.498;-73.582;2023-04-30T02:43:28;100673.63;;;11.81;63.70
79006;BME280;69202;45.498;-73.582;2023-04-30T02:45:57;100575.69;;;11.31;63.69
79006;BME280;69202;45.498;-73.582;2023-04-30T02:48:28;100686.06;;;11.75;63.66
79006;BME280;69202;45.498;-73.582;2023-04-30T02:50:54;100651.13;;;11.80;64.03
79006;BME280;69202;45.498;-73.582;2023-04-30T02:53:20;100714.41;;;12.46;64.90
79006;BME280;69202;45.498;-73.582;2023-04-30T02:55:45;100655.03;;;12.18;65.06
79006;BME280;69202;45.498;-73.582;2023-04-30T02:58:11;100726.47;;;12.63;64.78
79006;BME280;69202;45.498;-73.582;2023-04-30T03:00:38;100642.75;;;12.02;63.99
79006;BME280;69202;45.498;-73.582;2023-04-30T03:03:04;100714.19;;;12.47;63.41
79006;BME280;69202;45.498;-73.582;2023-04-30T03:05:30;100726.69;;;12.55;63.59
79006;BME280;69202;45.498;-73.582;2023-04-30T03:07:55;100697.13;;;12.33;63.35
79006;BME280;69202;45.498;-73.582;2023-04-30T03:10:21;100656.72;;;12.12;63.46
79006;BME280;69202;45.498;-73.582;2023-04-30T03:12:47;100565.91;;;11.50;63.72
79006;BME280;69202;45.498;-73.582;2023-04-30T03:15:13;100647.34;;;12.01;62.98
79006;BME280;69202;45.498;-73.582;2023-04-30T03:17:40;100651.06;;;12.07;63.36
79006;BME280;69202;45.498;-73.582;2023-04-30T03:20:06;100605.91;;;11.81;62.54
79006;BME280;69202;45.498;-73.582;2023-04-30T03:22:32;100419.16;;;10.62;63.19
79006;BME280;69202;45.498;-73.582;2023-04-30T03:24:58;100659.59;;;12.24;62.78
79006;BME280;69202;45.498;-73.582;2023-04-30T03:27:24;100709.00;;;12.46;62.01
79006;BME280;69202;45.498;-73.582;2023-04-30T03:29:50;100699.19;;;12.38;61.51
79006;BME280;69202;45.498;-73.582;2023-04-30T03:32:16;100499.28;;;10.89;61.29
79006;BME280;69202;45.498;-73.582;2023-04-30T03:34:42;100704.22;;;12.41;61.61
79006;BME280;69202;45.498;-73.582;2023-04-30T03:37:08;100614.88;;;11.88;61.19
79006;BME280;69202;45.498;-73.582;2023-04-30T03:39:34;100677.94;;;12.41;61.36
79006;BME280;69202;45.498;-73.582;2023-04-30T03:42:00;100548.59;;;11.71;62.66
79006;BME280;69202;45.498;-73.582;2023-04-30T03:44:28;100571.91;;;11.78;61.61
79006;BME280;69202;45.498;-73.582;2023-04-30T03:46:54;100680.38;;;12.50;62.04
79006;BME280;69202;45.498;-73.582;2023-04-30T03:49:20;100700.81;;;12.59;61.65
79006;BME280;69202;45.498;-73.582;2023-04-30T03:51:48;100451.63;;;10.82;61.91
79006;BME280;69202;45.498;-73.582;2023-04-30T03:54:17;100636.53;;;11.81;61.97
79006;BME280;69202;45.498;-73.582;2023-04-30T03:56:43;100413.31;;;10.45;62.60
79006;BME280;69202;45.498;-73.582;2023-04-30T03:59:09;100349.91;;;10.34;62.02
79006;BME280;69202;45.498;-73.582;2023-04-30T04:01:38;100671.53;;;12.09;62.22
79006;BME280;69202;45.498;-73.582;2023-04-30T04:04:04;100303.06;;;9.81;62.00
79006;BME280;69202;45.498;-73.582;2023-04-30T04:06:30;100593.59;;;11.52;62.86
79006;BME280;69202;45.498;-73.582;2023-04-30T04:08:56;100518.22;;;11.16;62.98
79006;BME280;69202;45.498;-73.582;2023-04-30T04:11:23;100729.25;;;12.43;61.91
79006;BME280;69202;45.498;-73.582;2023-04-30T04:13:48;100286.38;;;9.58;62.02
79006;BME280;69202;45.498;-73.582;2023-04-30T04:16:17;100271.19;;;9.43;62.81
79006;BME280;69202;45.498;-73.582;2023-04-30T04:18:43;100744.28;;;12.32;62.88
79006;BME280;69202;45.498;-73.582;2023-04-30T04:21:09;100516.34;;;11.23;62.39
79006;BME280;69202;45.498;-73.582;2023-04-30T04:23:35;100508.66;;;11.26;63.50
79006;BME280;69202;45.498;-73.582;2023-04-30T04:26:01;100656.75;;;11.99;63.67
79006;BME280;69202;45.498;-73.582;2023-04-30T04:28:27;100434.13;;;10.45;63.71
79006;BME280;69202;45.498;-73.582;2023-04-30T04:30:53;100675.91;;;11.84;65.38
79006;BME280;69202;45.498;-73.582;2023-04-30T04:33:19;100614.22;;;11.46;64.33
79006;BME280;69202;45.498;-73.582;2023-04-30T04:35:45;100664.84;;;11.79;64.89
79006;BME280;69202;45.498;-73.582;2023-04-30T04:38:12;100621.06;;;11.55;65.04
79006;BME280;69202;45.498;-73.582;2023-04-30T04:40:38;100661.72;;;11.69;65.13
79006;BME280;69202;45.498;-73.582;2023-04-30T04:43:04;100519.47;;;10.87;66.17
79006;BME280;69202;45.498;-73.582;2023-04-30T04:45:30;100544.22;;;11.10;66.78
79006;BME280;69202;45.498;-73.582;2023-04-30T04:47:56;100642.97;;;11.87;66.45
79006;BME280;69202;45.498;-73.582;2023-04-30T04:50:23;100560.06;;;11.40;66.06
79006;BME280;69202;45.498;-73.582;2023-04-30T04:52:49;100618.78;;;11.72;65.99
79006;BME280;69202;45.498;-73.582;2023-04-30T04:55:15;100517.19;;;10.97;65.58
79006;BME280;69202;45.498;-73.582;2023-04-30T04:57:41;100628.59;;;11.60;66.67
79006;BME280;69202;45.498;-73.582;2023-04-30T05:00:08;100549.66;;;11.17;66.27
79006;BME280;69202;45.498;-73.582;2023-04-30T05:02:35;100580.91;;;11.39;66.15
79006;BME280;69202;45.498;-73.582;2023-04-30T05:05:01;100558.00;;;11.28;66.29
79006;BME280;69202;45.498;-73.582;2023-04-30T05:07:26;100588.78;;;11.54;66.46
79006;BME280;69202;45.498;-73.582;2023-04-30T05:09:53;100542.78;;;11.21;66.78
79006;BME280;69202;45.498;-73.582;2023-04-30T05:12:19;100584.22;;;11.48;66.41
79006;BME280;69202;45.498;-73.582;2023-04-30T05:14:47;100509.88;;;10.91;67.45
79006;BME280;69202;45.498;-73.582;2023-04-30T05:17:15;100570.50;;;11.36;67.66
79006;BME280;69202;45.498;-73.582;2023-04-30T05:19:44;100566.75;;;11.37;66.98
79006;BME280;69202;45.498;-73.582;2023-04-30T05:22:12;100401.19;;;10.21;66.92
79006;BME280;69202;45.498;-73.582;2023-04-30T05:24:38;100376.88;;;10.21;67.13
79006;BME280;69202;45.498;-73.582;2023-04-30T05:27:04;100550.69;;;11.29;66.34
79006;BME280;69202;45.498;-73.582;2023-04-30T05:29:30;100528.63;;;11.19;66.67
79006;BME280;69202;45.498;-73.582;2023-04-30T05:31:56;100480.53;;;10.88;66.82
79006;BME280;69202;45.498;-73.582;2023-04-30T05:34:22;100473.66;;;10.79;65.74
79006;BME280;69202;45.498;-73.582;2023-04-30T05:36:48;100510.75;;;11.05;65.82
79006;BME280;69202;45.498;-73.582;2023-04-30T05:39:20;100467.44;;;10.78;65.81
79006;BME280;69202;45.498;-73.582;2023-04-30T05:41:46;100516.75;;;11.20;65.59
79006;BME280;69202;45.498;-73.582;2023-04-30T05:44:11;100524.06;;;11.26;64.90
79006;BME280;69202;45.498;-73.582;2023-04-30T05:46:37;100417.50;;;10.67;65.24
79006;BME280;69202;45.498;-73.582;2023-04-30T05:49:03;100195.16;;;9.26;64.82
79006;BME280;69202;45.498;-73.582;2023-04-30T05:51:29;100493.06;;;11.15;65.95
79006;BME280;69202;45.498;-73.582;2023-04-30T05:53:55;100376.94;;;10.48;65.28
79006;BME280;69202;45.498;-73.582;2023-04-30T05:56:22;100457.03;;;10.95;65.38
79006;BME280;69202;45.498;-73.582;2023-04-30T05:58:49;100397.94;;;10.52;65.32
79006;BME280;69202;45.498;-73.582;2023-04-30T06:01:18;100472.84;;;10.98;64.98
79006;BME280;69202;45.498;-73.582;2023-04-30T06:03:47;100444.75;;;10.79;64.93
79006;BME280;69202;45.498;-73.582;2023-04-30T06:06:13;100500.94;;;11.17;65.64
79006;BME280;69202;45.498;-73.582;2023-04-30T06:08:39;100491.78;;;11.18;64.74
79006;BME280;69202;45.498;-73.582;2023-04-30T06:11:09;100403.56;;;10.70;65.45
79006;BME280;69202;45.498;-73.582;2023-04-30T06:13:36;100288.72;;;10.00;65.73
79006;BME280;69202;45.498;-73.582;2023-04-30T06:16:02;100439.97;;;11.08;65.09
79006;BME280;69202;45.498;-73.582;2023-04-30T06:18:27;100466.38;;;11.12;64.99
79006;BME280;69202;45.498;-73.582;2023-04-30T06:20:53;100475.75;;;11.10;64.30
79006;BME280;69202;45.498;-73.582;2023-04-30T06:23:19;100440.59;;;10.96;64.64
79006;BME280;69202;45.498;-73.582;2023-04-30T06:25:45;100345.97;;;10.24;64.30
79006;BME280;69202;45.498;-73.582;2023-04-30T06:28:11;100332.38;;;10.10;64.98
79006;BME280;69202;45.498;-73.582;2023-04-30T06:30:37;100142.88;;;9.08;64.83
79006;BME280;69202;45.498;-73.582;2023-04-30T06:33:04;100436.63;;;10.99;65.20
79006;BME280;69202;45.498;-73.582;2023-04-30T06:35:32;100411.91;;;10.76;64.62
79006;BME280;69202;45.498;-73.582;2023-04-30T06:37:58;100485.75;;;11.09;64.63
79006;BME280;69202;45.498;-73.582;2023-04-30T06:40:27;100390.88;;;10.71;65.58
79006;BME280;69202;45.498;-73.582;2023-04-30T06:42:53;100412.09;;;10.87;65.22
79006;BME280;69202;45.498;-73.582;2023-04-30T06:45:20;100358.84;;;10.48;65.72
79006;BME280;69202;45.498;-73.582;2023-04-30T06:47:46;100421.06;;;10.94;65.11
79006;BME280;69202;45.498;-73.582;2023-04-30T06:50:12;100453.47;;;11.14;65.24
79006;BME280;69202;45.498;-73.582;2023-04-30T06:52:40;100409.78;;;10.91;65.80
79006;BME280;69202;45.498;-73.582;2023-04-30T06:55:06;100462.03;;;10.98;65.14
79006;BME280;69202;45.498;-73.582;2023-04-30T06:57:33;100321.22;;;10.27;65.22
79006;BME280;69202;45.498;-73.582;2023-04-30T07:00:05;100463.28;;;11.15;65.46
79006;BME280;69202;45.498;-73.582;2023-04-30T07:02:31;100408.56;;;10.80;64.58
79006;BME280;69202;45.498;-73.582;2023-04-30T07:04:57;100351.34;;;10.50;64.84
79006;BME280;69202;45.498;-73.582;2023-04-30T07:07:26;100379.44;;;10.69;64.40
79006;BME280;69202;45.498;-73.582;2023-04-30T07:09:52;100450.16;;;11.12;65.06
79006;BME280;69202;45.498;-73.582;2023-04-30T07:12:19;100344.91;;;10.51;64.16
79006;BME280;69202;45.498;-73.582;2023-04-30T07:14:45;100374.25;;;10.74;64.86
79006;BME280;69202;45.498;-73.582;2023-04-30T07:17:11;100401.06;;;10.89;64.40
79006;BME280;69202;45.498;-73.582;2023-04-30T07:19:37;100445.56;;;11.19;64.28
79006;BME280;69202;45.498;-73.582;2023-04-30T07:22:03;100392.13;;;10.88;64.67
79006;BME280;69202;45.498;-73.582;2023-04-30T07:24:30;100339.50;;;10.51;65.20
79006;BME280;69202;45.498;-73.582;2023-04-30T07:26:56;100356.97;;;10.62;64.45
79006;BME280;69202;45.498;-73.582;2023-04-30T07:29:23;100413.53;;;10.90;64.29
79006;BME280;69202;45.498;-73.582;2023-04-30T07:31:49;100344.72;;;10.53;65.52
79006;BME280;69202;45.498;-73.582;2023-04-30T07:34:16;100392.94;;;10.89;64.48
79006;BME280;69202;45.498;-73.582;2023-04-30T07:36:41;100396.72;;;10.94;64.15
79006;BME280;69202;45.498;-73.582;2023-04-30T07:39:08;100418.75;;;11.05;64.32
79006;BME280;69202;45.498;-73.582;2023-04-30T07:41:36;100440.19;;;11.06;64.93
79006;BME280;69202;45.498;-73.582;2023-04-30T07:44:01;100397.31;;;10.90;65.37
79006;BME280;69202;45.498;-73.582;2023-04-30T07:46:27;100377.38;;;10.64;66.27
79006;BME280;69202;45.498;-73.582;2023-04-30T07:48:53;100443.09;;;10.98;66.55
79006;BME280;69202;45.498;-73.582;2023-04-30T07:51:19;100396.28;;;10.71;66.99
79006;BME280;69202;45.498;-73.582;2023-04-30T07:53:45;100352.41;;;10.43;68.19
79006;BME280;69202;45.498;-73.582;2023-04-30T07:56:11;100430.63;;;10.97;69.06
79006;BME280;69202;45.498;-73.582;2023-04-30T07:58:37;100348.69;;;10.44;68.72
79006;BME280;69202;45.498;-73.582;2023-04-30T08:01:03;100413.75;;;10.95;68.27
79006;BME280;69202;45.498;-73.582;2023-04-30T08:03:29;100382.97;;;10.56;67.70
79006;BME280;69202;45.498;-73.582;2023-04-30T08:05:55;100382.38;;;10.54;67.97
79006;BME280;69202;45.498;-73.582;2023-04-30T08:08:21;100374.88;;;10.56;68.17
79006;BME280;69202;45.498;-73.582;2023-04-30T08:10:47;100414.41;;;10.84;68.01
79006;BME280;69202;45.498;-73.582;2023-04-30T08:13:13;100277.72;;;9.95;67.50
79006;BME280;69202;45.498;-73.582;2023-04-30T08:15:39;100424.78;;;10.87;68.01
79006;BME280;69202;45.498;-73.582;2023-04-30T08:18:05;100375.69;;;10.57;68.47
79006;BME280;69202;45.498;-73.582;2023-04-30T08:20:31;100152.41;;;9.17;68.46
79006;BME280;69202;45.498;-73.582;2023-04-30T08:22:57;100385.06;;;10.67;68.18
79006;BME280;69202;45.498;-73.582;2023-04-30T08:25:23;100414.19;;;10.85;67.82
79006;BME280;69202;45.498;-73.582;2023-04-30T08:27:49;100380.69;;;10.66;67.69
79006;BME280;69202;45.498;-73.582;2023-04-30T08:30:15;100414.38;;;10.90;68.63
79006;BME280;69202;45.498;-73.582;2023-04-30T08:32:41;100302.50;;;10.25;68.57
79006;BME280;69202;45.498;-73.582;2023-04-30T08:35:07;100320.41;;;10.33;68.57
79006;BME280;69202;45.498;-73.582;2023-04-30T08:37:34;100269.00;;;10.00;68.43
79006;BME280;69202;45.498;-73.582;2023-04-30T08:40:00;100390.06;;;10.77;68.47
79006;BME280;69202;45.498;-73.582;2023-04-30T08:42:35;100301.06;;;10.23;68.77
79006;BME280;69202;45.498;-73.582;2023-04-30T08:45:02;100375.69;;;10.70;68.55
79006;BME280;69202;45.498;-73.582;2023-04-30T08:47:28;100291.44;;;10.20;68.81
79006;BME280;69202;45.498;-73.582;2023-04-30T08:49:55;100375.47;;;10.72;68.93
79006;BME280;69202;45.498;-73.582;2023-04-30T08:52:21;100341.81;;;10.48;68.54
79006;BME280;69202;45.498;-73.582;2023-04-30T08:54:47;100258.41;;;10.05;68.98
79006;BME280;69202;45.498;-73.582;2023-04-30T08:57:15;100360.50;;;10.76;68.15
79006;BME280;69202;45.498;-73.582;2023-04-30T08:59:44;100358.03;;;10.74;69.06
79006;BME280;69202;45.498;-73.582;2023-04-30T09:02:11;100331.22;;;10.53;68.01
79006;BME280;69202;45.498;-73.582;2023-04-30T09:04:37;100300.22;;;10.35;69.17
79006;BME280;69202;45.498;-73.582;2023-04-30T09:07:03;100273.63;;;10.26;68.94
79006;BME280;69202;45.498;-73.582;2023-04-30T09:09:36;100345.94;;;10.77;68.61
79006;BME280;69202;45.498;-73.582;2023-04-30T09:12:16;100362.19;;;10.77;68.14
79006;BME280;69202;45.498;-73.582;2023-04-30T09:15:02;100356.56;;;10.78;67.36
79006;BME280;69202;45.498;-73.582;2023-04-30T09:17:29;100334.94;;;10.65;67.79
79006;BME280;69202;45.498;-73.582;2023-04-30T09:20:15;100357.81;;;10.76;67.51
79006;BME280;69202;45.498;-73.582;2023-04-30T09:22:43;100286.31;;;10.25;67.70
79006;BME280;69202;45.498;-73.582;2023-04-30T09:25:09;100357.19;;;10.74;68.07
79006;BME280;69202;45.498;-73.582;2023-04-30T09:27:36;100193.81;;;9.70;68.52
79006;BME280;69202;45.498;-73.582;2023-04-30T09:30:02;100349.88;;;10.81;67.53
79006;BME280;69202;45.498;-73.582;2023-04-30T09:32:29;100357.16;;;10.80;68.67
79006;BME280;69202;45.498;-73.582;2023-04-30T09:34:55;100343.66;;;10.80;68.25
79006;BME280;69202;45.498;-73.582;2023-04-30T09:37:21;100348.63;;;10.83;68.03
79006;BME280;69202;45.498;-73.582;2023-04-30T09:39:49;100345.09;;;10.83;67.33
79006;BME280;69202;45.498;-73.582;2023-04-30T09:42:16;100312.69;;;10.56;67.68
79006;BME280;69202;45.498;-73.582;2023-04-30T09:44:42;100208.34;;;9.96;67.55
79006;BME280;69202;45.498;-73.582;2023-04-30T09:47:14;100305.84;;;10.54;67.58
79006;BME280;69202;45.498;-73.582;2023-04-30T09:49:50;100314.97;;;10.66;67.63
79006;BME280;69202;45.498;-73.582;2023-04-30T09:52:17;100289.63;;;10.54;67.92
79006;BME280;69202;45.498;-73.582;2023-04-30T09:54:44;100328.03;;;10.89;68.34
79006;BME280;69202;45.498;-73.582;2023-04-30T09:57:12;100305.38;;;10.77;68.13
79006;BME280;69202;45.498;-73.582;2023-04-30T09:59:43;100338.84;;;10.95;67.34
79006;BME280;69202;45.498;-73.582;2023-04-30T10:02:13;100212.50;;;10.18;67.19
79006;BME280;69202;45.498;-73.582;2023-04-30T10:04:44;100352.78;;;10.92;67.23
79006;BME280;69202;45.498;-73.582;2023-04-30T10:07:19;100326.41;;;10.75;67.10
79006;BME280;69202;45.498;-73.582;2023-04-30T10:09:50;100344.69;;;10.86;67.39
79006;BME280;69202;45.498;-73.582;2023-04-30T10:12:22;100326.16;;;10.89;67.25
79006;BME280;69202;45.498;-73.582;2023-04-30T10:14:56;100322.19;;;10.92;67.54
79006;BME280;69202;45.498;-73.582;2023-04-30T10:17:26;100272.16;;;10.63;66.81
79006;BME280;69202;45.498;-73.582;2023-04-30T10:19:57;100270.88;;;10.65;66.92
79006;BME280;69202;45.498;-73.582;2023-04-30T10:22:29;100334.06;;;10.97;67.33
79006;BME280;69202;45.498;-73.582;2023-04-30T10:24:55;100314.72;;;10.87;66.19
79006;BME280;69202;45.498;-73.582;2023-04-30T10:27:21;100305.78;;;10.80;66.40
79006;BME280;69202;45.498;-73.582;2023-04-30T10:29:48;100255.09;;;10.56;66.53
79006;BME280;69202;45.498;-73.582;2023-04-30T10:32:15;100272.53;;;10.66;67.18
79006;BME280;69202;45.498;-73.582;2023-04-30T10:34:58;100316.78;;;10.98;67.09
79006;BME280;69202;45.498;-73.582;2023-04-30T10:37:38;100303.25;;;10.92;67.48
79006;BME280;69202;45.498;-73.582;2023-04-30T10:40:07;100323.03;;;10.99;66.48
79006;BME280;69202;45.498;-73.582;2023-04-30T10:42:35;100308.50;;;10.87;66.19
79006;BME280;69202;45.498;-73.582;2023-04-30T10:45:04;100329.25;;;10.99;66.74
79006;BME280;69202;45.498;-73.582;2023-04-30T10:47:34;100328.44;;;10.99;66.81
79006;BME280;69202;45.498;-73.582;2023-04-30T10:50:11;100278.34;;;10.77;66.27
79006;BME280;69202;45.498;-73.582;2023-04-30T10:52:38;100169.06;;;10.13;65.27
79006;BME280;69202;45.498;-73.582;2023-04-30T10:55:05;100318.84;;;11.03;65.92
79006;BME280;69202;45.498;-73.582;2023-04-30T10:57:42;100309.50;;;10.99;66.12
79006;BME280;69202;45.498;-73.582;2023-04-30T11:02:39;100297.84;;;11.05;66.38
79006;BME280;69202;45.498;-73.582;2023-04-30T11:05:17;100317.78;;;11.17;65.90
79006;BME280;69202;45.498;-73.582;2023-04-30T11:07:55;100289.09;;;11.03;65.90
79006;BME280;69202;45.498;-73.582;2023-04-30T11:10:22;100284.50;;;11.10;66.81
79006;BME280;69202;45.498;-73.582;2023-04-30T11:12:50;100304.25;;;11.17;66.23
79006;BME280;69202;45.498;-73.582;2023-04-30T11:15:41;100308.41;;;11.20;65.78
79006;BME280;69202;45.498;-73.582;2023-04-30T11:18:08;100342.91;;;11.24;65.75
79006;BME280;69202;45.498;-73.582;2023-04-30T11:20:39;100268.09;;;10.98;65.85
79006;BME280;69202;45.498;-73.582;2023-04-30T11:23:15;100311.25;;;11.32;65.69
79006;BME280;69202;45.498;-73.582;2023-04-30T11:25:43;100310.63;;;11.36;64.74
79006;BME280;69202;45.498;-73.582;2023-04-30T11:28:18;100236.25;;;11.01;64.84
79006;BME280;69202;45.498;-73.582;2023-04-30T11:30:54;100303.13;;;11.38;64.66
79006;BME280;69202;45.498;-73.582;2023-04-30T11:33:22;100301.63;;;11.42;64.60
79006;BME280;69202;45.498;-73.582;2023-04-30T11:35:52;100295.78;;;11.45;64.64
79006;BME280;69202;45.498;-73.582;2023-04-30T11:38:25;100107.75;;;10.33;64.10
79006;BME280;69202;45.498;-73.582;2023-04-30T11:40:51;100248.19;;;11.31;65.16
79006;BME280;69202;45.498;-73.582;2023-04-30T11:43:28;100287.41;;;11.53;64.18
79006;BME280;69202;45.498;-73.582;2023-04-30T11:48:48;100216.19;;;11.15;64.43
79006;BME280;69202;45.498;-73.582;2023-04-30T11:51:21;100292.59;;;11.62;63.26
79006;BME280;69202;45.498;-73.582;2023-04-30T11:53:49;100267.69;;;11.46;63.99
79006;BME280;69202;45.498;-73.582;2023-04-30T11:56:20;100274.91;;;11.59;63.64
79006;BME280;69202;45.498;-73.582;2023-04-30T11:58:48;100271.72;;;11.69;63.85
79006;BME280;69202;45.498;-73.582;2023-04-30T12:01:14;100267.97;;;11.70;63.68
79006;BME280;69202;45.498;-73.582;2023-04-30T12:03:45;100280.22;;;11.79;64.06
79006;BME280;69202;45.498;-73.582;2023-04-30T12:06:20;100252.72;;;11.75;64.33
79006;BME280;69202;45.498;-73.582;2023-04-30T12:08:47;100261.06;;;11.74;63.54
79006;BME280;69202;45.498;-73.582;2023-04-30T12:11:23;100258.34;;;11.74;63.93
79006;BME280;69202;45.498;-73.582;2023-04-30T12:13:54;100280.78;;;11.88;63.91
79006;BME280;69202;45.498;-73.582;2023-04-30T12:16:23;100206.88;;;11.49;64.13
79006;BME280;69202;45.498;-73.582;2023-04-30T12:18:50;100229.16;;;11.76;63.42
79006;BME280;69202;45.498;-73.582;2023-04-30T12:21:16;100256.72;;;12.04;63.88
79006;BME280;69202;45.498;-73.582;2023-04-30T12:23:43;100203.38;;;11.67;63.39
79006;BME280;69202;45.498;-73.582;2023-04-30T12:26:09;100250.34;;;11.92;63.51
79006;BME280;69202;45.498;-73.582;2023-04-30T12:28:35;100223.13;;;11.80;63.08
79006;BME280;69202;45.498;-73.582;2023-04-30T12:31:01;100105.88;;;10.85;62.63
79006;BME280;69202;45.498;-73.582;2023-04-30T12:33:31;100189.66;;;11.68;63.14
79006;BME280;69202;45.498;-73.582;2023-04-30T12:35:57;100257.41;;;12.18;62.29
79006;BME280;69202;45.498;-73.582;2023-04-30T12:38:24;100151.81;;;11.55;62.66
79006;BME280;69202;45.498;-73.582;2023-04-30T12:40:49;100107.31;;;11.19;62.48
79006;BME280;69202;45.498;-73.582;2023-04-30T12:43:16;100250.34;;;12.17;62.54
79006;BME280;69202;45.498;-73.582;2023-04-30T12:45:50;100150.09;;;11.67;62.62
79006;BME280;69202;45.498;-73.582;2023-04-30T12:48:18;100275.19;;;12.39;62.25
79006;BME280;69202;45.498;-73.582;2023-04-30T12:51:00;100197.31;;;12.03;62.17